createdAt,value
2022-12-31T00:00:28.045Z,8.73
2022-12-31T00:01:28.024Z,8.84
2022-12-31T00:02:28.134Z,8.84
2022-12-31T00:03:28.253Z,8.84
2022-12-31T00:04:29.073Z,8.84
2022-12-31T00:05:29.062Z,8.90
2022-12-31T00:06:28.255Z,8.86
2022-12-31T00:07:28.299Z,8.90
2022-12-31T00:08:28.409Z,8.94
2022-12-31T00:09:29.064Z,8.90
2022-12-31T00:10:29.078Z,8.96
2022-12-31T00:11:28.475Z,8.88
2022-12-31T00:12:28.517Z,8.88
2022-12-31T00:13:28.582Z,8.84
2022-12-31T00:14:28.616Z,8.90
2022-12-31T00:15:29.573Z,8.81
2022-12-31T00:16:28.768Z,8.81
2022-12-31T00:17:28.774Z,8.84
2022-12-31T00:18:28.807Z,8.91
2022-12-31T00:19:28.834Z,8.88
2022-12-31T00:20:28.884Z,8.90
2022-12-31T00:21:28.940Z,8.84
2022-12-31T00:22:28.996Z,8.94
2022-12-31T00:23:29.043Z,8.81
2022-12-31T00:24:29.568Z,8.83
2022-12-31T00:25:29.118Z,8.86
2022-12-31T00:26:29.170Z,8.94
2022-12-31T00:27:30.063Z,8.99
2022-12-31T00:28:29.265Z,8.84
2022-12-31T00:29:29.295Z,8.91
2022-12-31T00:30:29.453Z,8.90
2022-12-31T00:31:29.399Z,8.86
2022-12-31T00:32:29.430Z,8.88
2022-12-31T00:33:29.502Z,8.83
2022-12-31T00:34:29.506Z,8.84
2022-12-31T00:35:29.553Z,8.86
2022-12-31T00:36:29.603Z,8.76
2022-12-31T00:37:30.576Z,8.78
2022-12-31T00:38:29.710Z,8.87
2022-12-31T00:39:29.742Z,8.81
2022-12-31T00:40:29.778Z,8.75
2022-12-31T00:41:29.859Z,8.76
2022-12-31T00:42:29.887Z,8.81
2022-12-31T00:43:29.922Z,8.76
2022-12-31T00:44:29.962Z,8.84
2022-12-31T00:45:30.584Z,8.75
2022-12-31T00:46:30.102Z,8.71
2022-12-31T00:47:30.134Z,8.75
2022-12-31T00:48:30.145Z,8.62
2022-12-31T00:49:30.180Z,8.65
2022-12-31T00:50:30.279Z,8.78
2022-12-31T00:51:30.275Z,8.81
2022-12-31T00:52:30.315Z,8.72
2022-12-31T00:53:30.372Z,8.63
2022-12-31T00:54:30.415Z,8.71
2022-12-31T00:55:30.487Z,8.65
2022-12-31T00:56:31.075Z,8.76
2022-12-31T00:57:30.550Z,8.76
2022-12-31T00:58:30.597Z,8.68
2022-12-31T00:59:30.633Z,8.76
2022-12-31T01:00:30.712Z,8.76
2022-12-31T01:01:30.841Z,8.87
2022-12-31T01:02:31.002Z,8.83
2022-12-31T01:03:30.848Z,8.90
2022-12-31T01:04:30.858Z,8.84
2022-12-31T01:05:31.575Z,8.97
2022-12-31T01:06:30.978Z,8.99
2022-12-31T01:07:31.026Z,9.09
2022-12-31T01:08:31.043Z,9.06
2022-12-31T01:09:31.090Z,9.05
2022-12-31T01:10:31.197Z,9.02
2022-12-31T01:11:31.185Z,9.10
2022-12-31T01:12:31.241Z,9.02
2022-12-31T01:13:31.268Z,9.04
2022-12-31T01:14:31.310Z,8.93
2022-12-31T01:15:31.399Z,8.94
2022-12-31T01:16:31.403Z,9.02
2022-12-31T01:17:31.475Z,9.01
2022-12-31T01:18:31.495Z,9.05
2022-12-31T01:19:32.087Z,9.04
2022-12-31T01:20:32.586Z,9.05
2022-12-31T01:21:31.644Z,9.05
2022-12-31T01:22:31.716Z,9.06
2022-12-31T01:23:31.724Z,9.04
2022-12-31T01:24:31.765Z,9.04
2022-12-31T01:25:31.809Z,8.99
2022-12-31T01:26:31.853Z,9.09
2022-12-31T01:27:31.924Z,9.04
2022-12-31T01:28:31.944Z,8.97
2022-12-31T01:29:32.025Z,9.05
2022-12-31T01:30:32.584Z,9.01
2022-12-31T01:31:33.073Z,9.01
2022-12-31T01:32:32.155Z,8.99
2022-12-31T01:33:32.181Z,9.10
2022-12-31T01:34:32.241Z,9.12
2022-12-31T01:35:33.090Z,9.20
2022-12-31T01:36:33.084Z,9.23
2022-12-31T01:37:32.412Z,9.21
2022-12-31T01:38:32.407Z,9.30
2022-12-31T01:39:32.442Z,9.34
2022-12-31T01:40:32.491Z,9.28
2022-12-31T01:41:32.535Z,9.40
2022-12-31T01:42:32.621Z,9.30
2022-12-31T01:43:32.635Z,9.39
2022-12-31T01:44:32.680Z,9.45
2022-12-31T01:45:32.719Z,9.61
2022-12-31T01:46:32.800Z,9.89
2022-12-31T01:47:32.843Z,10.00
2022-12-31T01:48:32.859Z,10.06
2022-12-31T01:49:33.577Z,10.10
2022-12-31T01:50:32.955Z,10.09
2022-12-31T01:51:32.993Z,10.06
2022-12-31T01:52:33.074Z,10.18
2022-12-31T01:53:33.085Z,10.06
2022-12-31T01:54:34.084Z,10.19
2022-12-31T01:55:34.089Z,10.21
2022-12-31T01:56:33.244Z,10.30
2022-12-31T01:57:33.281Z,10.25
2022-12-31T01:58:33.325Z,10.25
2022-12-31T01:59:33.368Z,10.17
2022-12-31T02:00:34.079Z,10.14
2022-12-31T02:01:33.545Z,10.25
2022-12-31T02:02:33.563Z,10.19
2022-12-31T02:03:33.567Z,10.19
2022-12-31T02:04:33.600Z,10.06
2022-12-31T02:05:34.581Z,10.17
2022-12-31T02:06:33.724Z,10.14
2022-12-31T02:07:34.600Z,10.37
2022-12-31T02:08:37.006Z,10.52
2022-12-31T02:09:33.827Z,10.80
2022-12-31T02:10:34.587Z,11.01
2022-12-31T02:11:33.934Z,11.29
2022-12-31T02:12:34.001Z,11.47
2022-12-31T02:13:34.011Z,11.67
2022-12-31T02:14:34.584Z,11.62
2022-12-31T02:15:35.149Z,11.82
2022-12-31T02:16:34.150Z,12.08
2022-12-31T02:17:34.239Z,12.08
2022-12-31T02:18:34.244Z,12.08
2022-12-31T02:19:34.289Z,12.15
2022-12-31T02:20:35.091Z,12.09
2022-12-31T02:21:34.385Z,12.30
2022-12-31T02:22:34.448Z,12.21
2022-12-31T02:23:35.278Z,12.24
2022-12-31T02:24:36.277Z,12.11
2022-12-31T02:25:35.097Z,12.08
2022-12-31T02:26:34.615Z,12.11
2022-12-31T02:27:34.688Z,12.08
2022-12-31T02:28:34.704Z,12.16
2022-12-31T02:29:35.588Z,12.30
2022-12-31T02:30:35.600Z,12.44
2022-12-31T02:31:34.890Z,12.39
2022-12-31T02:32:34.919Z,12.39
2022-12-31T02:33:34.939Z,12.44
2022-12-31T02:34:34.976Z,12.26
2022-12-31T02:35:35.589Z,12.21
2022-12-31T02:36:35.107Z,12.11
2022-12-31T02:37:35.123Z,12.01
2022-12-31T02:38:36.088Z,11.89
2022-12-31T02:39:35.210Z,11.78
2022-12-31T02:40:35.268Z,11.80
2022-12-31T02:41:35.324Z,11.72
2022-12-31T02:42:35.378Z,11.70
2022-12-31T02:43:36.096Z,11.80
2022-12-31T02:44:36.092Z,11.87
2022-12-31T02:45:36.104Z,12.01
2022-12-31T02:46:35.594Z,12.12
2022-12-31T02:47:35.614Z,12.21
2022-12-31T02:48:35.629Z,12.27
2022-12-31T02:49:35.689Z,12.29
2022-12-31T02:50:35.752Z,12.19
2022-12-31T02:51:35.771Z,12.06
2022-12-31T02:52:36.592Z,12.09
2022-12-31T02:53:35.867Z,12.11
2022-12-31T02:54:35.923Z,12.02
2022-12-31T02:55:35.994Z,12.05
2022-12-31T02:56:36.014Z,11.80
2022-12-31T02:57:36.594Z,11.82
2022-12-31T02:58:36.141Z,11.71
2022-12-31T02:59:36.152Z,11.61
2022-12-31T03:00:36.302Z,11.52
2022-12-31T03:01:36.338Z,11.49
2022-12-31T03:02:37.107Z,11.44
2022-12-31T03:03:36.339Z,11.36
2022-12-31T03:04:36.501Z,11.20
2022-12-31T03:05:44.651Z,11.07
2022-12-31T03:06:36.481Z,10.99
2022-12-31T03:07:36.562Z,10.86
2022-12-31T03:08:37.152Z,10.81
2022-12-31T03:09:37.137Z,10.80
2022-12-31T03:10:37.633Z,10.66
2022-12-31T03:11:36.707Z,10.59
2022-12-31T03:12:36.790Z,10.65
2022-12-31T03:13:36.803Z,10.63
2022-12-31T03:14:36.852Z,10.43
2022-12-31T03:15:37.650Z,10.37
2022-12-31T03:16:36.960Z,10.30
2022-12-31T03:17:37.017Z,10.25
2022-12-31T03:18:37.031Z,10.25
2022-12-31T03:19:37.640Z,10.12
2022-12-31T03:20:37.153Z,10.17
2022-12-31T03:21:38.135Z,10.17
2022-12-31T03:22:37.218Z,10.21
2022-12-31T03:23:37.281Z,10.15
2022-12-31T03:24:37.319Z,10.14
2022-12-31T03:25:37.385Z,10.17
2022-12-31T03:26:37.431Z,10.07
2022-12-31T03:27:37.472Z,10.18
2022-12-31T03:28:38.146Z,10.25
2022-12-31T03:29:37.548Z,10.25
2022-12-31T03:30:38.137Z,10.34
2022-12-31T03:31:37.657Z,10.26
2022-12-31T03:32:37.710Z,10.22
2022-12-31T03:33:37.730Z,10.25
2022-12-31T03:34:37.796Z,10.28
2022-12-31T03:35:38.638Z,10.28
2022-12-31T03:36:37.872Z,10.24
2022-12-31T03:37:38.659Z,10.32
2022-12-31T03:38:38.662Z,10.34
2022-12-31T03:39:38.039Z,10.36
2022-12-31T03:40:38.048Z,10.36
2022-12-31T03:41:38.095Z,10.43
2022-12-31T03:42:38.141Z,10.42
2022-12-31T03:43:38.206Z,10.47
2022-12-31T03:44:38.258Z,10.51
2022-12-31T03:45:39.267Z,10.52
2022-12-31T03:46:39.155Z,10.53
2022-12-31T03:47:38.381Z,10.46
2022-12-31T03:48:38.423Z,10.46
2022-12-31T03:49:38.495Z,10.44
2022-12-31T03:50:39.144Z,10.51
2022-12-31T03:51:38.576Z,10.46
2022-12-31T03:52:39.157Z,10.42
2022-12-31T03:53:38.652Z,10.51
2022-12-31T03:54:38.693Z,10.52
2022-12-31T03:55:38.764Z,10.51
2022-12-31T03:56:38.786Z,10.52
2022-12-31T03:57:38.839Z,10.51
2022-12-31T03:58:39.652Z,10.55
2022-12-31T03:59:38.923Z,10.47
2022-12-31T04:00:39.057Z,10.52
2022-12-31T04:01:39.098Z,10.44
2022-12-31T04:02:39.144Z,10.40
2022-12-31T04:03:39.657Z,10.32
2022-12-31T04:04:39.173Z,10.42
2022-12-31T04:05:40.166Z,10.36
2022-12-31T04:06:39.275Z,10.39
2022-12-31T04:07:39.302Z,10.36
2022-12-31T04:08:39.348Z,10.37
2022-12-31T04:09:39.419Z,10.36
2022-12-31T04:10:39.458Z,10.40
2022-12-31T04:11:40.170Z,10.40
2022-12-31T04:12:39.547Z,10.37
2022-12-31T04:13:39.571Z,10.34
2022-12-31T04:14:39.620Z,10.47
2022-12-31T04:15:40.648Z,10.42
2022-12-31T04:16:39.782Z,10.44
2022-12-31T04:17:40.647Z,10.47
2022-12-31T04:18:39.827Z,10.43
2022-12-31T04:19:39.860Z,10.46
2022-12-31T04:20:40.660Z,10.52
2022-12-31T04:21:39.953Z,10.42
2022-12-31T04:22:40.024Z,10.43
2022-12-31T04:23:40.660Z,10.51
2022-12-31T04:24:41.842Z,10.43
2022-12-31T04:25:40.662Z,10.51
2022-12-31T04:26:41.843Z,10.51
2022-12-31T04:27:40.889Z,10.43
2022-12-31T04:28:40.312Z,10.36
2022-12-31T04:29:41.154Z,10.40
2022-12-31T04:30:40.889Z,10.34
2022-12-31T04:31:41.210Z,10.39
2022-12-31T04:32:40.451Z,10.36
2022-12-31T04:33:40.551Z,10.32
2022-12-31T04:34:41.164Z,10.40
2022-12-31T04:35:40.633Z,10.32
2022-12-31T04:36:40.645Z,10.36
2022-12-31T04:37:41.679Z,10.40
2022-12-31T04:38:41.674Z,10.55
2022-12-31T04:39:40.783Z,10.44
2022-12-31T04:40:40.848Z,10.56
2022-12-31T04:41:41.654Z,10.55
2022-12-31T04:42:40.952Z,10.46
2022-12-31T04:43:40.962Z,10.47
2022-12-31T04:44:41.655Z,10.42
2022-12-31T04:45:41.112Z,10.34
2022-12-31T04:46:41.120Z,10.32
2022-12-31T04:47:41.147Z,10.12
2022-12-31T04:48:42.154Z,10.09
2022-12-31T04:49:41.240Z,10.00
2022-12-31T04:50:42.166Z,9.97
2022-12-31T04:51:41.358Z,9.94
2022-12-31T04:52:43.045Z,9.93
2022-12-31T04:53:41.465Z,9.93
2022-12-31T04:54:42.155Z,9.79
2022-12-31T04:55:42.156Z,9.82
2022-12-31T04:56:41.562Z,9.81
2022-12-31T04:57:41.611Z,9.79
2022-12-31T04:58:41.680Z,9.81
2022-12-31T04:59:42.661Z,9.78
2022-12-31T05:00:41.753Z,9.81
2022-12-31T05:01:42.719Z,9.76
2022-12-31T05:02:41.995Z,9.71
2022-12-31T05:03:41.905Z,9.73
2022-12-31T05:04:41.941Z,9.75
2022-12-31T05:05:42.669Z,9.70
2022-12-31T05:06:42.026Z,9.73
2022-12-31T05:07:42.075Z,9.81
2022-12-31T05:08:42.140Z,9.71
2022-12-31T05:09:42.661Z,9.78
2022-12-31T05:10:42.212Z,9.78
2022-12-31T05:11:42.258Z,9.79
2022-12-31T05:12:42.293Z,9.75
2022-12-31T05:13:42.371Z,9.78
2022-12-31T05:14:42.390Z,9.71
2022-12-31T05:15:42.432Z,9.81
2022-12-31T05:16:42.511Z,9.76
2022-12-31T05:17:42.524Z,9.73
2022-12-31T05:18:42.594Z,9.75
2022-12-31T05:19:43.163Z,9.81
2022-12-31T05:20:42.688Z,9.86
2022-12-31T05:21:42.750Z,9.89
2022-12-31T05:22:42.763Z,9.83
2022-12-31T05:23:42.801Z,9.88
2022-12-31T05:24:43.665Z,9.83
2022-12-31T05:25:43.672Z,9.86
2022-12-31T05:26:42.978Z,9.88
2022-12-31T05:27:42.985Z,9.89
2022-12-31T05:28:43.037Z,9.83
2022-12-31T05:29:43.073Z,9.86
2022-12-31T05:30:43.141Z,9.78
2022-12-31T05:31:43.195Z,9.78
2022-12-31T05:32:43.248Z,9.75
2022-12-31T05:33:43.261Z,9.78
2022-12-31T05:34:43.305Z,9.78
2022-12-31T05:35:43.399Z,9.78
2022-12-31T05:36:44.166Z,9.82
2022-12-31T05:37:44.173Z,9.78
2022-12-31T05:38:43.530Z,9.85
2022-12-31T05:39:43.543Z,9.83
2022-12-31T05:40:44.176Z,9.86
2022-12-31T05:41:43.628Z,9.79
2022-12-31T05:42:43.673Z,9.85
2022-12-31T05:43:43.772Z,9.83
2022-12-31T05:44:43.769Z,9.83
2022-12-31T05:45:43.869Z,9.83
2022-12-31T05:46:43.862Z,9.79
2022-12-31T05:47:43.907Z,9.89
2022-12-31T05:48:43.974Z,9.81
2022-12-31T05:49:44.679Z,9.81
2022-12-31T05:50:44.045Z,9.96
2022-12-31T05:51:44.092Z,9.78
2022-12-31T05:52:47.658Z,9.89
2022-12-31T05:53:44.212Z,9.81
2022-12-31T05:54:44.244Z,9.83
2022-12-31T05:55:45.177Z,9.89
2022-12-31T05:56:44.319Z,9.91
2022-12-31T05:57:44.365Z,9.89
2022-12-31T05:58:44.405Z,10.12
2022-12-31T05:59:44.486Z,10.07
2022-12-31T06:00:45.170Z,10.06
2022-12-31T06:01:44.551Z,10.03
2022-12-31T06:02:44.637Z,10.14
2022-12-31T06:03:44.694Z,10.15
2022-12-31T06:04:44.690Z,10.14
2022-12-31T06:05:44.731Z,10.19
2022-12-31T06:06:44.791Z,10.17
2022-12-31T06:07:44.817Z,10.22
2022-12-31T06:08:44.891Z,10.25
2022-12-31T06:09:44.941Z,10.24
2022-12-31T06:10:45.683Z,10.25
2022-12-31T06:11:45.007Z,10.21
2022-12-31T06:12:45.048Z,10.28
2022-12-31T06:13:45.114Z,10.30
2022-12-31T06:14:45.956Z,10.32
2022-12-31T06:15:46.203Z,10.40
2022-12-31T06:16:45.265Z,10.37
2022-12-31T06:17:45.294Z,10.37
2022-12-31T06:18:45.353Z,10.37
2022-12-31T06:19:46.241Z,10.39
2022-12-31T06:20:46.187Z,10.51
2022-12-31T06:21:45.462Z,10.44
2022-12-31T06:22:45.515Z,10.40
2022-12-31T06:23:45.595Z,10.40
2022-12-31T06:24:45.599Z,10.36
2022-12-31T06:25:45.651Z,10.34
2022-12-31T06:26:46.685Z,10.33
2022-12-31T06:27:45.743Z,10.36
2022-12-31T06:28:45.818Z,10.34
2022-12-31T06:29:45.861Z,10.36
2022-12-31T06:30:45.971Z,10.30
2022-12-31T06:31:45.927Z,10.28
2022-12-31T06:32:46.695Z,10.30
2022-12-31T06:33:46.014Z,10.25
2022-12-31T06:34:46.078Z,10.28
2022-12-31T06:35:46.138Z,10.28
2022-12-31T06:36:46.677Z,10.25
2022-12-31T06:37:46.211Z,10.36
2022-12-31T06:38:47.184Z,10.32
2022-12-31T06:39:46.305Z,10.46
2022-12-31T06:40:46.364Z,10.43
2022-12-31T06:41:46.431Z,10.44
2022-12-31T06:42:46.440Z,10.42
2022-12-31T06:43:46.498Z,10.52
2022-12-31T06:44:46.521Z,10.51
2022-12-31T06:45:46.601Z,10.51
2022-12-31T06:46:46.673Z,10.46
2022-12-31T06:47:49.681Z,10.53
2022-12-31T06:48:46.714Z,10.52
2022-12-31T06:49:46.753Z,10.46
2022-12-31T06:50:46.829Z,10.47
2022-12-31T06:51:46.868Z,10.43
2022-12-31T06:52:46.903Z,10.42
2022-12-31T06:53:46.960Z,10.39
2022-12-31T06:54:47.031Z,10.40
2022-12-31T06:55:47.065Z,10.39
2022-12-31T06:56:47.080Z,10.36
2022-12-31T06:57:47.163Z,10.30
2022-12-31T06:58:47.172Z,10.30
2022-12-31T06:59:47.223Z,10.25
2022-12-31T07:00:47.270Z,10.40
2022-12-31T07:01:47.442Z,10.39
2022-12-31T07:02:47.432Z,10.43
2022-12-31T07:03:48.194Z,10.46
2022-12-31T07:04:48.184Z,10.36
2022-12-31T07:05:47.511Z,10.33
2022-12-31T07:06:47.576Z,10.32
2022-12-31T07:07:47.621Z,10.32
2022-12-31T07:08:48.185Z,10.25
2022-12-31T07:09:48.203Z,10.34
2022-12-31T07:10:48.692Z,10.28
2022-12-31T07:11:48.692Z,10.28
2022-12-31T07:12:47.847Z,10.21
2022-12-31T07:13:48.692Z,10.25
2022-12-31T07:14:47.936Z,10.25
2022-12-31T07:15:48.725Z,10.24
2022-12-31T07:16:48.005Z,10.25
2022-12-31T07:17:48.085Z,10.21
2022-12-31T07:18:48.191Z,10.25
2022-12-31T07:19:52.411Z,10.26
2022-12-31T07:20:48.199Z,10.39
2022-12-31T07:21:48.244Z,10.40
2022-12-31T07:22:49.203Z,10.47
2022-12-31T07:23:48.367Z,10.43
2022-12-31T07:24:49.193Z,10.44
2022-12-31T07:25:49.199Z,10.46
2022-12-31T07:26:54.252Z,10.59
2022-12-31T07:27:48.550Z,10.56
2022-12-31T07:28:49.188Z,10.58
2022-12-31T07:29:48.651Z,10.68
2022-12-31T07:30:49.189Z,10.62
2022-12-31T07:31:48.730Z,10.58
2022-12-31T07:32:49.689Z,10.58
2022-12-31T07:33:49.694Z,10.66
2022-12-31T07:34:48.870Z,10.62
2022-12-31T07:35:48.915Z,10.63
2022-12-31T07:36:48.964Z,10.56
2022-12-31T07:37:49.690Z,10.60
2022-12-31T07:38:49.030Z,10.60
2022-12-31T07:39:49.068Z,10.60
2022-12-31T07:40:49.751Z,10.58
2022-12-31T07:41:56.717Z,10.59
2022-12-31T07:42:49.209Z,10.59
2022-12-31T07:43:49.260Z,10.65
2022-12-31T07:44:49.322Z,10.71
2022-12-31T07:45:50.252Z,10.66
2022-12-31T07:46:50.291Z,10.66
2022-12-31T07:47:49.478Z,10.73
2022-12-31T07:48:50.258Z,10.76
2022-12-31T07:49:50.239Z,10.74
2022-12-31T07:50:49.585Z,10.78
2022-12-31T07:51:49.632Z,10.68
2022-12-31T07:52:49.709Z,10.66
2022-12-31T07:53:49.746Z,10.77
2022-12-31T07:54:49.779Z,10.62
2022-12-31T07:55:50.739Z,10.65
2022-12-31T07:56:49.868Z,10.62
2022-12-31T07:57:49.942Z,10.63
2022-12-31T07:58:49.986Z,10.70
2022-12-31T07:59:50.762Z,10.56
2022-12-31T08:00:50.774Z,10.63
2022-12-31T08:01:50.225Z,10.65
2022-12-31T08:02:50.802Z,10.65
2022-12-31T08:03:50.211Z,10.52
2022-12-31T08:04:50.753Z,10.58
2022-12-31T08:05:50.313Z,10.63
2022-12-31T08:06:51.263Z,10.63
2022-12-31T08:07:51.245Z,10.62
2022-12-31T08:08:50.423Z,10.63
2022-12-31T08:09:50.468Z,10.60
2022-12-31T08:10:50.557Z,10.71
2022-12-31T08:11:50.563Z,10.70
2022-12-31T08:12:50.619Z,10.77
2022-12-31T08:13:51.246Z,10.80
2022-12-31T08:14:51.289Z,10.83
2022-12-31T08:15:50.888Z,10.89
2022-12-31T08:27:29.649Z,10.92
2022-12-31T08:28:22.821Z,10.94
2022-12-31T08:29:22.805Z,10.91
2022-12-31T08:30:22.309Z,10.84
2022-12-31T08:31:22.390Z,10.94
2022-12-31T08:32:23.307Z,10.91
2022-12-31T08:33:23.324Z,10.95
2022-12-31T08:34:23.311Z,10.92
2022-12-31T08:35:22.493Z,10.88
2022-12-31T08:36:23.317Z,10.95
2022-12-31T08:37:22.559Z,10.91
2022-12-31T08:38:22.633Z,10.99
2022-12-31T08:39:22.650Z,10.99
2022-12-31T08:40:22.717Z,11.07
2022-12-31T08:41:23.307Z,11.10
2022-12-31T08:42:22.819Z,11.11
2022-12-31T08:43:22.874Z,11.10
2022-12-31T08:44:22.948Z,11.20
2022-12-31T08:45:23.913Z,11.19
2022-12-31T08:46:23.809Z,11.28
2022-12-31T08:47:23.058Z,11.34
2022-12-31T08:48:23.812Z,11.34
2022-12-31T08:49:23.145Z,11.34
2022-12-31T08:50:23.243Z,11.34
2022-12-31T08:51:23.211Z,11.46
2022-12-31T08:52:23.268Z,11.47
2022-12-31T08:53:23.310Z,11.53
2022-12-31T08:54:23.376Z,11.59
2022-12-31T08:55:23.412Z,11.74
2022-12-31T08:56:23.449Z,11.65
2022-12-31T08:57:23.499Z,11.77
2022-12-31T08:58:23.538Z,11.97
2022-12-31T08:59:23.608Z,12.05
2022-12-31T09:00:23.733Z,12.21
2022-12-31T09:01:23.759Z,12.27
2022-12-31T09:02:23.751Z,12.41
2022-12-31T09:03:23.779Z,12.46
2022-12-31T09:04:23.871Z,12.56
2022-12-31T09:05:23.897Z,12.66
2022-12-31T09:06:23.928Z,12.74
2022-12-31T09:07:24.009Z,12.95
2022-12-31T09:08:24.062Z,12.99
2022-12-31T09:09:24.071Z,13.18
2022-12-31T09:10:24.836Z,13.40
2022-12-31T09:11:24.178Z,13.55
2022-12-31T09:12:24.208Z,13.69
2022-12-31T09:13:24.280Z,13.84
2022-12-31T09:14:24.349Z,14.04
2022-12-31T09:15:24.349Z,14.07
2022-12-31T09:16:24.449Z,14.14
2022-12-31T09:17:25.349Z,14.21
2022-12-31T09:18:28.385Z,14.46
2022-12-31T09:19:24.580Z,14.67
2022-12-31T09:20:24.638Z,14.61
2022-12-31T09:21:24.653Z,14.72
2022-12-31T09:22:24.699Z,14.87
2022-12-31T09:23:24.785Z,14.93
2022-12-31T09:24:24.796Z,14.87
2022-12-31T09:25:24.874Z,14.75
2022-12-31T09:26:24.899Z,14.80
2022-12-31T09:27:27.811Z,14.98
2022-12-31T09:28:24.993Z,15.12
2022-12-31T09:29:25.045Z,15.20
2022-12-31T09:30:25.119Z,15.35
2022-12-31T09:31:25.170Z,15.31
2022-12-31T09:32:25.202Z,15.13
2022-12-31T09:33:25.227Z,15.12
2022-12-31T09:34:25.826Z,15.19
2022-12-31T09:35:25.359Z,15.17
2022-12-31T09:36:25.384Z,15.01
2022-12-31T09:37:25.462Z,14.64
2022-12-31T09:38:25.491Z,14.50
2022-12-31T09:39:25.523Z,14.49
2022-12-31T09:40:25.574Z,14.46
2022-12-31T09:41:25.620Z,14.25
2022-12-31T09:42:25.699Z,14.24
2022-12-31T09:43:25.721Z,14.25
2022-12-31T09:44:25.774Z,14.17
2022-12-31T09:45:26.545Z,13.95
2022-12-31T09:46:26.841Z,13.71
2022-12-31T09:47:25.961Z,13.61
2022-12-31T09:48:25.973Z,13.55
2022-12-31T09:49:26.020Z,13.56
2022-12-31T09:50:26.831Z,13.41
2022-12-31T09:51:26.126Z,13.43
2022-12-31T09:52:26.196Z,13.37
2022-12-31T09:53:26.249Z,13.30
2022-12-31T09:54:26.264Z,13.07
2022-12-31T09:55:26.323Z,13.17
2022-12-31T09:56:26.357Z,13.17
2022-12-31T09:57:26.429Z,13.21
2022-12-31T09:58:26.511Z,13.22
2022-12-31T09:59:26.514Z,13.27
2022-12-31T10:00:26.640Z,13.32
2022-12-31T10:01:26.725Z,13.46
2022-12-31T10:02:26.842Z,13.54
2022-12-31T10:03:27.361Z,13.59
2022-12-31T10:04:26.744Z,13.65
2022-12-31T10:05:26.826Z,13.79
2022-12-31T10:06:26.846Z,14.13
2022-12-31T10:07:26.898Z,14.46
2022-12-31T10:08:26.950Z,14.29
2022-12-31T10:09:27.835Z,14.19
2022-12-31T10:10:27.079Z,14.28
2022-12-31T10:11:27.099Z,14.44
2022-12-31T10:12:27.156Z,14.28
2022-12-31T10:13:27.202Z,14.32
2022-12-31T10:14:27.241Z,14.19
2022-12-31T10:15:27.317Z,14.46
2022-12-31T10:16:27.450Z,14.57
2022-12-31T10:17:27.381Z,14.43
2022-12-31T10:18:27.441Z,14.65
2022-12-31T10:19:27.497Z,14.64
2022-12-31T10:20:27.561Z,14.75
2022-12-31T10:21:28.346Z,14.91
2022-12-31T10:22:27.633Z,14.98
2022-12-31T10:23:27.681Z,15.13
2022-12-31T10:24:27.766Z,15.36
2022-12-31T10:25:39.580Z,15.52
2022-12-31T10:26:28.353Z,15.94
2022-12-31T10:27:27.894Z,16.34
2022-12-31T10:28:27.946Z,16.37
2022-12-31T10:29:28.021Z,16.00
2022-12-31T10:30:28.042Z,16.01
2022-12-31T10:31:28.105Z,15.63
2022-12-31T10:32:31.327Z,15.85
2022-12-31T10:33:28.204Z,16.07
2022-12-31T10:34:28.275Z,16.15
2022-12-31T10:35:28.863Z,16.42
2022-12-31T10:36:28.351Z,16.45
2022-12-31T10:37:29.366Z,16.40
2022-12-31T10:38:29.355Z,16.26
2022-12-31T10:39:28.555Z,16.26
2022-12-31T10:40:28.572Z,16.35
2022-12-31T10:41:28.618Z,16.58
2022-12-31T10:42:28.675Z,16.56
2022-12-31T10:43:29.381Z,16.71
2022-12-31T10:44:28.790Z,16.41
2022-12-31T10:45:28.842Z,16.16
2022-12-31T10:46:28.923Z,16.11
2022-12-31T10:47:28.924Z,16.04
2022-12-31T10:48:28.976Z,16.12
2022-12-31T10:49:29.860Z,16.18
2022-12-31T10:50:29.073Z,16.15
2022-12-31T10:51:29.153Z,16.01
2022-12-31T10:52:29.206Z,15.96
2022-12-31T10:53:29.233Z,15.94
2022-12-31T10:54:29.862Z,15.93
2022-12-31T10:55:29.334Z,16.00
2022-12-31T10:56:29.402Z,16.04
2022-12-31T10:57:29.460Z,16.03
2022-12-31T10:58:29.489Z,16.11
2022-12-31T10:59:29.551Z,16.03
2022-12-31T11:00:29.596Z,16.23
2022-12-31T11:01:29.724Z,16.20
2022-12-31T11:02:29.848Z,16.04
2022-12-31T11:03:29.915Z,16.11
2022-12-31T11:04:29.787Z,16.15
2022-12-31T11:05:29.837Z,16.22
2022-12-31T11:06:30.877Z,16.49
2022-12-31T11:07:29.953Z,16.58
2022-12-31T11:08:29.986Z,16.53
2022-12-31T11:09:34.378Z,16.59
2022-12-31T11:10:30.078Z,16.78
2022-12-31T11:11:30.191Z,16.81
2022-12-31T11:12:30.874Z,16.86
2022-12-31T11:13:30.233Z,16.78
2022-12-31T11:14:30.293Z,16.63
2022-12-31T11:15:30.364Z,16.67
2022-12-31T11:16:30.419Z,16.45
2022-12-31T11:17:30.426Z,16.53
2022-12-31T11:18:30.524Z,16.73
2022-12-31T11:19:30.527Z,16.70
2022-12-31T11:20:30.580Z,16.60
2022-12-31T11:21:30.638Z,16.53
2022-12-31T11:22:30.675Z,16.53
2022-12-31T11:23:30.757Z,16.52
2022-12-31T11:24:30.797Z,16.62
2022-12-31T11:25:31.379Z,16.53
2022-12-31T11:26:30.875Z,16.56
2022-12-31T11:27:30.929Z,16.68
2022-12-31T11:28:31.012Z,16.77
2022-12-31T11:29:31.867Z,16.77
2022-12-31T11:30:31.869Z,16.86
2022-12-31T11:31:31.158Z,16.78
2022-12-31T11:32:31.187Z,16.75
2022-12-31T11:33:31.256Z,16.78
2022-12-31T11:34:31.307Z,16.80
2022-12-31T11:35:31.339Z,16.93
2022-12-31T11:36:31.371Z,16.90
2022-12-31T11:37:31.433Z,16.92
2022-12-31T11:38:31.508Z,16.92
2022-12-31T11:39:31.682Z,16.92
2022-12-31T11:40:31.607Z,16.83
2022-12-31T11:41:32.379Z,16.88
2022-12-31T11:42:31.676Z,16.90
2022-12-31T11:43:31.721Z,16.92
2022-12-31T11:44:32.372Z,16.81
2022-12-31T11:45:31.883Z,16.86
2022-12-31T11:46:32.426Z,16.85
2022-12-31T11:47:31.942Z,16.90
2022-12-31T11:48:32.703Z,16.92
2022-12-31T11:49:32.023Z,16.88
2022-12-31T11:50:32.109Z,16.89
2022-12-31T11:51:32.142Z,16.89
2022-12-31T11:52:32.176Z,16.92
2022-12-31T11:53:32.228Z,16.93
2022-12-31T11:54:32.285Z,16.90
2022-12-31T11:55:32.448Z,16.96
2022-12-31T11:56:32.413Z,16.96
2022-12-31T11:57:32.418Z,17.00
2022-12-31T11:58:33.405Z,17.08
2022-12-31T11:59:32.564Z,17.08
2022-12-31T12:00:32.569Z,17.06
2022-12-31T12:01:33.424Z,17.04
2022-12-31T12:02:32.743Z,17.04
2022-12-31T12:03:32.732Z,17.15
2022-12-31T12:04:32.803Z,17.14
2022-12-31T12:05:32.848Z,17.14
2022-12-31T12:06:32.886Z,17.07
2022-12-31T12:07:32.921Z,17.14
2022-12-31T12:08:32.981Z,17.15
2022-12-31T12:09:33.047Z,17.13
2022-12-31T12:10:36.414Z,17.14
2022-12-31T12:11:33.210Z,17.08
2022-12-31T12:12:33.895Z,17.11
2022-12-31T12:13:33.265Z,17.10
2022-12-31T12:14:33.304Z,17.13
2022-12-31T12:15:33.882Z,16.99
2022-12-31T12:16:33.407Z,16.95
2022-12-31T12:17:33.429Z,16.93
2022-12-31T12:18:33.475Z,16.90
2022-12-31T12:19:33.543Z,16.92
2022-12-31T12:20:33.570Z,16.95
2022-12-31T12:21:33.633Z,16.98
2022-12-31T12:22:33.704Z,16.98
2022-12-31T12:23:33.744Z,16.96
2022-12-31T12:24:33.770Z,16.92
2022-12-31T12:25:34.398Z,16.78
2022-12-31T12:26:33.955Z,16.68
2022-12-31T12:27:33.920Z,16.63
2022-12-31T12:28:37.413Z,16.71
2022-12-31T12:29:34.063Z,16.62
2022-12-31T12:30:34.075Z,16.49
2022-12-31T12:31:34.284Z,16.49
2022-12-31T12:32:34.207Z,16.40
2022-12-31T12:33:34.926Z,16.44
2022-12-31T12:34:34.330Z,16.49
2022-12-31T12:35:34.403Z,16.41
2022-12-31T12:36:34.404Z,16.45
2022-12-31T12:37:34.462Z,16.41
2022-12-31T12:38:34.490Z,16.50
2022-12-31T12:39:34.609Z,16.41
2022-12-31T12:40:34.689Z,16.58
2022-12-31T12:41:35.093Z,16.63
2022-12-31T12:42:34.696Z,16.60
2022-12-31T12:43:35.144Z,16.68
2022-12-31T12:44:34.875Z,16.78
2022-12-31T12:45:34.869Z,16.74
2022-12-31T12:46:34.958Z,16.89
2022-12-31T12:47:35.920Z,16.93
2022-12-31T12:48:34.996Z,16.95
2022-12-31T12:49:35.035Z,16.86
2022-12-31T12:50:35.129Z,16.92
2022-12-31T12:51:35.896Z,16.93
2022-12-31T12:52:35.204Z,16.92
2022-12-31T12:53:35.933Z,16.99
2022-12-31T12:54:35.295Z,17.04
2022-12-31T12:55:35.343Z,17.00
2022-12-31T12:56:35.399Z,16.83
2022-12-31T12:57:35.456Z,16.78
2022-12-31T12:58:35.578Z,16.63
2022-12-31T12:59:35.575Z,16.27
2022-12-31T13:00:35.687Z,16.11
2022-12-31T13:01:35.849Z,15.56
2022-12-31T13:02:35.803Z,15.21
2022-12-31T13:03:36.418Z,14.90
2022-12-31T13:04:35.960Z,14.80
2022-12-31T13:05:35.827Z,14.64
2022-12-31T13:06:35.885Z,14.34
2022-12-31T13:07:36.000Z,14.19
2022-12-31T13:08:36.009Z,13.84
2022-12-31T13:09:36.935Z,13.83